LFBDLPPR

Guest
Details From LFBD - Bordeaux Merignac
To LPPR - Porto
Flight Number -
Tags decoded
Created
Modified
Stats Distance 410 nm / 760 km
Max Altitude 0 ft / 0 m
Waypoints 2
Social Downloads 0
Likes 0
Share VATSIM

Download

Looking for another format? Having issues loading an existing format? Contact us
Advertisement - Login to hide

Notes

Requested: LFBD LPPR

Route

LFBD LPPR

ID Type Via Altitude Latitude Longitude Leg Dist Tot Dist Heading (true) Name
O LFBD APT - 0 ft / 0 m 44.82876˚ -0.71476˚ - 0 nm - Bordeaux Merignac
O LPPR APT - 0 ft / 0 m 41.24793˚ -8.68122˚ 410 nm 410 nm 241° / 236° Porto

Altitude Profile

Advertisement - Login to hide

Weather


0- 5 10 15 20 25 30 35+ Temperature / ° C

Clouds and Precipitation
Forecast for 2018-05-21 06:00 UTC. Updated 3 hours ago

Ground ~20,000 ft ~40,000 ft Winds

LFBD

Details ICAO LFBD (BOD)
Name Bordeaux Merignac
Region France
Timezone Europe/Paris (UTC+2.0)
Stats Elevation 166 ft / 51 m (AMSL)
Location 44.828762° -0.714755°
Runways 2
Magnetic Variation 0.012° W

METAR

LFBD 210800Z AUTO VRB03KT 9999 ///TCU 20/13 Q1012 TEMPO FEW050CB BKN060TCU

Decode

TAF

TAF AMD LFBD 210650Z 2106/2212 VRB03KT 9999 FEW070TCU PROB40 TEMPO 2109/2124 -SHRA FEW050CB BKN060TCU PROB30 TEMPO 2112/2122 VRB15G25KT 4000 -TSRA BKN040CB BECMG 2202/2204 24010KT NSC PROB40 2204/2207 4000 BR BKN005 TEMPO 2210/2212 -SHRA FEW040CB BKN050TCU TX26/2115Z TN13/2203Z

Decode

Departure Runways

ID Width Length Bearing (true) Bearing (mag) Surface Threshold Offset Overrun Length
05 148 ft / 45 m 10,164 ft / 3,098 m 45.48° 45.49° Asphalt 26 ft / 8 m 1,145 ft / 349 m
11 148 ft / 45 m 7,931 ft / 2,417 m 106.45° 106.46° Asphalt 26 ft / 8 m 1,198 ft / 365 m
23 148 ft / 45 m 10,164 ft / 3,098 m 225.50° 225.51° Asphalt 39 ft / 12 m 1,266 ft / 386 m
29 148 ft / 45 m 7,931 ft / 2,417 m 286.47° 286.48° Asphalt 33 ft / 10 m 1,201 ft / 366 m

LPPR

Details ICAO LPPR (OPO)
Name Porto
Region Portugal
Timezone Europe/Lisbon (UTC+1.0)
Stats Elevation 228 ft / 69 m (AMSL)
Location 41.247932° -8.681221°
Runways 1
Magnetic Variation 2.283° W

METAR

LPPR 210800Z 17010KT 9999 FEW017 BKN020 15/10 Q1012

Decode

TAF

TAF LPPR 210500Z 2106/2206 19008KT 9999 BKN017 BECMG 2108/2110 22010KT SCT020 BECMG 2114/2116 26008KT BECMG 2118/2120 VRB03KT SCT012 TEMPO 2200/2206 BKN008

Decode

Destination Runways

ID Width Length Bearing (true) Bearing (mag) Surface Threshold Offset Overrun Length
17 148 ft / 45 m 11,451 ft / 3,490 m 168.88° 171.16° Asphalt 984 ft / 300 m 220 ft / 67 m
35 148 ft / 45 m 11,451 ft / 3,490 m 348.89° 351.17° Asphalt 492 ft / 150 m 370 ft / 113 m

Approach Navaids

Runway Type Ident Frequency Range Bearing (true) Bearing (mag) Slope Elevation
17 Localiser PR 109.90 MHz 18 nm / 33 km 168.87° 171.15° - 228 ft / 69 m (AMSL)
17 Glidescope PR 109.90 MHz 10 nm / 19 km 168.88° 171.17° 2.72° 228 ft / 69 m (AMSL)
17 DME PR 109.90 MHz 18 nm / 33 km - - - 228 ft / 69 m (AMSL)

Popular Alternatives